Time;durP1;ratioP1;P1;durP2;ratioP2;P2;SDS_P1;SDS_P2;PMS_P1;PMS_P2;Temp;Humidity;BMP_temperature;BMP_pressure;BME280_temperature;BME280_humidity;BME280_pressure;Samples;Min_cycle;Max_cycle;Signal;HPM_P1;HPM_P2
2024/02/20 00:01:40;;;;;;;;;;;;;;;21.05;27.37;98674.75;5012739;28;744;-81
2024/02/20 00:04:08;;;;;;;;;;;;;;;21.20;27.26;98676.16;4995218;28;1895;-81
2024/02/20 00:06:35;;;;;;;;;;;;;;;21.37;26.77;98674.31;4996934;28;815;-82
2024/02/20 00:09:01;;;;;;;;;;;;;;;21.17;27.31;98670.53;5011113;28;1173;-81
2024/02/20 00:11:28;;;;;;;;;;;;;;;21.22;26.97;98668.03;4997550;28;883;-81
2024/02/20 00:13:54;;;;;;;;;;;;;;;21.00;27.06;98661.06;5012568;28;1388;-81
2024/02/20 00:16:21;;;;;;;;;;;;;;;21.06;27.23;98670.69;4996199;28;1140;-81
2024/02/20 00:18:47;;;;;;;;;;;;;;;20.60;27.79;98674.91;5012560;28;875;-81
2024/02/20 00:21:13;;;;;;;;;;;;;;;21.07;27.36;98666.63;4997335;28;1036;-81
2024/02/20 00:23:39;;;;;;;;;;;;;;;21.11;27.37;98658.88;5012198;28;1891;-81
2024/02/20 00:26:04;;;;;;;;;;;;;;;21.00;27.37;98661.06;5014369;28;799;-81
2024/02/20 00:28:30;;;;;;;;;;;;;;;20.97;27.45;98662.72;5010845;28;1196;-80
2024/02/20 00:30:56;;;;;;;;;;;;;;;21.13;27.36;98664.13;5013992;28;839;-81
2024/02/20 00:33:21;;;;;;;;;;;;;;;21.10;27.22;98653.66;5010150;28;1102;-81
2024/02/20 00:35:47;;;;;;;;;;;;;;;21.24;27.30;98654.28;5012188;28;1108;-81
2024/02/20 00:38:12;;;;;;;;;;;;;;;20.74;27.53;98649.28;5010023;28;1133;-80
2024/02/20 00:40:39;;;;;;;;;;;;;;;20.51;28.11;98644.31;4995490;28;1137;-81
2024/02/20 00:43:05;;;;;;;;;;;;;;;20.96;27.59;98660.31;4994962;28;856;-82
2024/02/20 00:45:31;;;;;;;;;;;;;;;21.07;27.27;98655.31;4979394;28;1906;-82
2024/02/20 00:47:56;;;;;;;;;;;;;;;21.22;27.21;98644.59;5010268;28;964;-81
2024/02/20 00:50:22;;;;;;;;;;;;;;;21.20;26.98;98647.84;5010813;28;946;-80
2024/02/20 00:52:49;;;;;;;;;;;;;;;21.19;27.09;98634.94;4995316;28;884;-81
2024/02/20 00:55:14;;;;;;;;;;;;;;;21.20;26.92;98630.06;5010923;28;847;-81
2024/02/20 00:57:40;;;;;;;;;;;;;;;20.38;28.17;98626.28;5011530;28;767;-81
2024/02/20 01:00:06;;;;;;;;;;;;;;;20.51;27.98;98629.38;4978085;28;895;-81
2024/02/20 01:02:31;;;;;;;;;;;;;;;20.91;27.67;98621.97;5011704;28;862;-82
2024/02/20 01:04:57;;;;;;;;;;;;;;;20.95;27.47;98631.22;4994806;28;1891;-81
2024/02/20 01:07:24;;;;;;;;;;;;;;;20.84;27.62;98629.78;5011859;28;1008;-82
2024/02/20 01:09:49;;;;;;;;;;;;;;;21.14;27.51;98632.59;5009912;28;822;-81
2024/02/20 01:12:15;;;;;;;;;;;;;;;21.06;27.38;98626.22;4995448;28;895;-82
2024/02/20 01:14:42;;;;;;;;;;;;;;;21.02;27.60;98624.66;5010741;28;1100;-81
2024/02/20 01:17:08;;;;;;;;;;;;;;;21.15;27.22;98622.88;5013182;28;708;-82
2024/02/20 01:19:33;;;;;;;;;;;;;;;21.21;27.21;98620.34;5010746;28;1278;-82
2024/02/20 01:21:59;;;;;;;;;;;;;;;20.29;28.17;98617.50;5013275;28;752;-81
2024/02/20 01:24:25;;;;;;;;;;;;;;;20.57;27.65;98610.72;5011574;28;1878;-81
2024/02/20 01:26:50;;;;;;;;;;;;;;;20.77;27.85;98608.03;5011053;28;865;-81
2024/02/20 01:29:21;;;;;;;;;;;;;;;21.07;27.33;98613.66;4993791;28;1046;-81
2024/02/20 01:31:47;;;;;;;;;;;;;;;20.93;27.86;98608.19;4979138;28;803;-81
2024/02/20 01:34:13;;;;;;;;;;;;;;;21.08;27.34;98611.63;4992841;28;765;-81
2024/02/20 01:36:38;;;;;;;;;;;;;;;21.30;27.01;98606.50;4961390;28;899;-81
2024/02/20 01:39:04;;;;;;;;;;;;;;;21.00;27.51;98604.50;5009635;28;776;-81
2024/02/20 01:41:29;;;;;;;;;;;;;;;21.14;26.93;98604.28;4962179;28;884;-81
2024/02/20 01:43:55;;;;;;;;;;;;;;;20.57;27.86;98593.75;5009346;28;1879;-81
2024/02/20 01:46:22;;;;;;;;;;;;;;;20.50;27.96;98593.84;5010478;28;946;-81
2024/02/20 01:48:50;;;;;;;;;;;;;;;20.98;27.34;98601.28;4993033;28;839;-81
2024/02/20 01:51:17;;;;;;;;;;;;;;;20.86;27.83;98593.38;4994677;28;1006;-82
2024/02/20 01:53:45;;;;;;;;;;;;;;;21.00;27.47;98593.19;4993036;28;775;-82
2024/02/20 01:56:13;;;;;;;;;;;;;;;21.08;27.21;98595.44;5011233;28;950;-81
2024/02/20 01:58:39;;;;;;;;;;;;;;;21.19;27.24;98589.66;5006648;28;922;-81
2024/02/20 02:01:05;;;;;;;;;;;;;;;21.28;27.03;98589.88;4996266;28;1071;-82
2024/02/20 02:03:30;;;;;;;;;;;;;;;20.86;27.25;98590.53;4993363;28;764;-81
2024/02/20 02:05:56;;;;;;;;;;;;;;;20.62;27.60;98590.44;5012669;28;1953;-81
2024/02/20 02:08:22;;;;;;;;;;;;;;;20.68;28.10;98594.44;5010768;28;1013;-81
2024/02/20 02:10:47;;;;;;;;;;;;;;;21.03;27.39;98593.09;5011569;28;742;-82
2024/02/20 02:13:13;;;;;;;;;;;;;;;20.68;27.73;98587.97;5009224;28;815;-80
2024/02/20 02:15:39;;;;;;;;;;;;;;;20.94;27.66;98589.22;5011750;28;907;-81
2024/02/20 02:18:04;;;;;;;;;;;;;;;21.25;26.86;98587.94;5009146;28;959;-81
2024/02/20 02:20:30;;;;;;;;;;;;;;;21.36;26.93;98592.66;5009581;28;1116;-81
2024/02/20 02:22:55;;;;;;;;;;;;;;;20.69;27.49;98573.41;4993707;28;1001;-81
2024/02/20 02:25:21;;;;;;;;;;;;;;;20.14;28.30;98584.97;4993103;28;1919;-81
2024/02/20 02:27:46;;;;;;;;;;;;;;;20.43;28.11;98580.59;4992485;28;1112;-81
2024/02/20 02:30:14;;;;;;;;;;;;;;;21.18;27.03;98579.53;4993002;28;823;-81
2024/02/20 02:32:40;;;;;;;;;;;;;;;20.98;27.30;98578.63;4977855;28;1041;-82
2024/02/20 02:35:09;;;;;;;;;;;;;;;20.75;27.77;98568.06;4992344;28;1295;-81
2024/02/20 02:37:35;;;;;;;;;;;;;;;21.04;27.23;98574.13;4993128;28;851;-81
2024/02/20 02:40:02;;;;;;;;;;;;;;;20.89;27.47;98582.03;4991555;28;883;-80
2024/02/20 02:42:27;;;;;;;;;;;;;;;21.13;27.13;98577.19;4977794;28;856;-81
2024/02/20 02:44:53;;;;;;;;;;;;;;;21.11;27.32;98593.00;5007728;28;1906;-81
2024/02/20 02:47:18;;;;;;;;;;;;;;;21.13;27.01;98584.88;5010482;28;835;-82
2024/02/20 02:49:45;;;;;;;;;;;;;;;21.30;26.80;98590.31;4991747;28;807;-82
2024/02/20 02:52:10;;;;;;;;;;;;;;;21.13;26.80;98588.50;5010073;28;891;-81
2024/02/20 02:54:36;;;;;;;;;;;;;;;20.97;27.00;98594.81;4975223;28;704;-82
2024/02/20 02:57:02;;;;;;;;;;;;;;;20.45;27.97;98591.47;5009505;28;894;-81
2024/02/20 02:59:27;;;;;;;;;;;;;;;20.99;27.40;98600.06;5008678;28;823;-81
2024/02/20 03:01:53;;;;;;;;;;;;;;;21.11;27.36;98599.47;5010842;28;779;-81
2024/02/20 03:04:19;;;;;;;;;;;;;;;21.06;27.04;98597.13;5009392;28;1974;-82
2024/02/20 03:06:45;;;;;;;;;;;;;;;20.96;27.47;98603.72;5010278;28;795;-81
2024/02/20 03:09:15;;;;;;;;;;;;;;;21.21;26.84;98600.53;5009091;28;807;-81
2024/02/20 03:11:41;;;;;;;;;;;;;;;21.19;27.26;98603.81;5011158;28;925;-82
2024/02/20 03:14:07;;;;;;;;;;;;;;;21.07;27.01;98599.50;5008207;28;1219;-81
2024/02/20 03:16:33;;;;;;;;;;;;;;;20.89;27.14;98603.84;5010090;28;973;-81
2024/02/20 03:19:00;;;;;;;;;;;;;;;20.70;27.71;98597.63;5008443;28;1159;-81
2024/02/20 03:21:25;;;;;;;;;;;;;;;21.19;27.23;98598.16;5008769;28;994;-81
2024/02/20 03:23:51;;;;;;;;;;;;;;;21.09;27.29;98604.78;5008081;28;1941;-81
2024/02/20 03:26:16;;;;;;;;;;;;;;;20.93;27.39;98604.56;4994073;28;823;-81
2024/02/20 03:28:43;;;;;;;;;;;;;;;21.14;27.29;98603.47;5008831;28;1105;-81
2024/02/20 03:31:09;;;;;;;;;;;;;;;21.25;27.18;98613.41;5026730;28;875;-81
2024/02/20 03:33:34;;;;;;;;;;;;;;;20.66;27.83;98596.88;5007517;28;834;-81
2024/02/20 03:36:02;;;;;;;;;;;;;;;20.40;27.99;98606.06;5010861;28;838;-81
2024/02/20 03:38:28;;;;;;;;;;;;;;;20.76;27.83;98597.94;5009114;28;778;-81
2024/02/20 03:40:53;;;;;;;;;;;;;;;21.01;27.40;98606.09;5011395;28;1342;-81
2024/02/20 03:43:19;;;;;;;;;;;;;;;21.23;27.15;98601.69;5008295;28;962;-82
2024/02/20 03:45:44;;;;;;;;;;;;;;;21.06;27.23;98609.22;5009817;28;1983;-81
2024/02/20 03:48:10;;;;;;;;;;;;;;;21.08;27.43;98611.63;5009246;28;830;-80
2024/02/20 03:50:36;;;;;;;;;;;;;;;21.31;26.93;98611.72;5010494;28;894;-81
2024/02/20 03:53:02;;;;;;;;;;;;;;;20.92;27.41;98605.81;5008335;28;961;-81
2024/02/20 03:55:27;;;;;;;;;;;;;;;20.58;27.87;98612.34;5009221;28;1214;-81
2024/02/20 03:57:53;;;;;;;;;;;;;;;20.68;27.69;98608.56;5010286;28;901;-81
2024/02/20 04:00:23;;;;;;;;;;;;;;;20.86;27.58;98613.19;5008551;28;836;-81
2024/02/20 04:02:49;;;;;;;;;;;;;;;21.06;27.41;98619.75;5008869;28;688;-81
2024/02/20 04:05:15;;;;;;;;;;;;;;;20.95;27.66;98610.63;5006876;28;1946;-81
2024/02/20 04:07:41;;;;;;;;;;;;;;;20.97;27.38;98611.00;4991589;28;875;-81
2024/02/20 04:10:09;;;;;;;;;;;;;;;21.27;27.04;98610.94;4991075;28;1086;-80
2024/02/20 04:12:35;;;;;;;;;;;;;;;21.27;27.07;98607.31;5008678;28;954;-81
2024/02/20 04:15:04;;;;;;;;;;;;;;;19.95;28.71;98606.16;4974949;28;851;-81
2024/02/20 04:17:30;;;;;;;;;;;;;;;20.67;27.93;98609.78;4992888;28;895;-81
2024/02/20 04:19:55;;;;;;;;;;;;;;;20.91;27.31;98604.22;5007084;28;928;-82
2024/02/20 04:22:21;;;;;;;;;;;;;;;21.14;26.94;98609.94;5009194;28;967;-81
2024/02/20 04:24:47;;;;;;;;;;;;;;;20.96;27.28;98615.06;4991003;28;1956;-82
2024/02/20 04:27:12;;;;;;;;;;;;;;;21.05;27.56;98609.66;4988449;28;995;-81
2024/02/20 04:29:38;;;;;;;;;;;;;;;21.21;27.13;98611.84;4971350;28;1363;-81
2024/02/20 04:32:03;;;;;;;;;;;;;;;21.20;26.92;98613.88;4989611;28;785;-82
2024/02/20 04:34:29;;;;;;;;;;;;;;;20.97;27.32;98600.47;4987698;28;808;-81
2024/02/20 04:36:55;;;;;;;;;;;;;;;20.49;28.00;98592.25;4988905;28;911;-82
2024/02/20 04:39:20;;;;;;;;;;;;;;;21.00;27.25;98605.28;4970654;28;1596;-82
2024/02/20 04:41:46;;;;;;;;;;;;;;;21.13;27.24;98608.31;4939946;28;1587;-81
2024/02/20 04:44:11;;;;;;;;;;;;;;;20.92;27.58;98608.63;4989294;28;1906;-81
2024/02/20 04:46:37;;;;;;;;;;;;;;;20.93;27.43;98602.53;4992317;28;1101;-81
2024/02/20 04:49:03;;;;;;;;;;;;;;;21.05;27.21;98595.53;4991617;28;965;-82
2024/02/20 04:51:30;;;;;;;;;;;;;;;21.22;26.92;98599.31;4973642;29;952;-82
2024/02/20 04:53:55;;;;;;;;;;;;;;;21.26;26.93;98595.19;4972094;28;1042;-81
2024/02/20 04:56:21;;;;;;;;;;;;;;;20.98;26.98;98598.44;4970367;28;1188;-81
2024/02/20 04:58:47;;;;;;;;;;;;;;;20.28;28.24;98593.28;4967838;28;1227;-81
2024/02/20 05:01:15;;;;;;;;;;;;;;;20.26;28.54;98596.53;4953630;29;1542;-81
2024/02/20 05:03:41;;;;;;;;;;;;;;;20.89;27.75;98598.19;4966983;28;1164;-81
2024/02/20 05:06:06;;;;;;;;;;;;;;;20.96;27.38;98598.06;4961060;28;1904;-81
2024/02/20 05:08:32;;;;;;;;;;;;;;;20.90;27.83;98594.13;4989700;28;971;-81
2024/02/20 05:10:57;;;;;;;;;;;;;;;21.02;27.22;98593.53;5009195;28;999;-81
2024/02/20 05:13:23;;;;;;;;;;;;;;;21.08;27.47;98600.31;4990268;28;1073;-82
2024/02/20 05:15:49;;;;;;;;;;;;;;;21.21;27.26;98606.19;4976284;28;871;-81
2024/02/20 05:18:14;;;;;;;;;;;;;;;21.22;26.81;98600.09;4940512;28;1211;-82
2024/02/20 05:20:40;;;;;;;;;;;;;;;21.14;27.12;98604.28;4971956;29;1245;-81
2024/02/20 05:23:05;;;;;;;;;;;;;;;21.44;26.88;98606.25;4971157;29;1231;-82
2024/02/20 05:25:31;;;;;;;;;;;;;;;21.16;26.93;98607.47;4955541;29;1952;-82
2024/02/20 05:27:57;;;;;;;;;;;;;;;20.76;27.21;98600.78;5006019;28;1228;-82
2024/02/20 05:30:24;;;;;;;;;;;;;;;20.80;27.57;98608.00;5051954;28;885;-80
2024/02/20 05:32:50;;;;;;;;;;;;;;;20.99;27.59;98608.56;5017859;28;1080;-82
2024/02/20 05:35:15;;;;;;;;;;;;;;;21.14;27.11;98615.59;5050656;28;890;-82
2024/02/20 05:37:41;;;;;;;;;;;;;;;20.97;27.45;98603.31;5034907;28;1134;-82
2024/02/20 05:40:11;;;;;;;;;;;;;;;20.96;27.33;98606.56;5020486;28;1581;-81
2024/02/20 05:42:37;;;;;;;;;;;;;;;21.15;27.14;98610.75;5020704;28;1548;-82
2024/02/20 05:45:03;;;;;;;;;;;;;;;21.34;26.80;98607.22;5010481;28;1957;-81
2024/02/20 05:47:28;;;;;;;;;;;;;;;21.19;26.91;98615.13;4992196;28;928;-82
2024/02/20 05:49:54;;;;;;;;;;;;;;;20.37;28.23;98612.56;4989858;28;876;-82
2024/02/20 05:52:20;;;;;;;;;;;;;;;20.67;27.50;98614.63;4937081;29;1081;-81
2024/02/20 05:54:46;;;;;;;;;;;;;;;21.15;27.27;98617.19;4935324;29;904;-82
2024/02/20 05:57:12;;;;;;;;;;;;;;;20.94;27.36;98623.19;4920655;29;1267;-82
2024/02/20 05:59:37;;;;;;;;;;;;;;;21.02;27.30;98631.13;4935236;29;1318;-82
2024/02/20 06:02:03;;;;;;;;;;;;;;;21.16;27.12;98624.47;4952393;29;891;-79
2024/02/20 06:04:28;;;;;;;;;;;;;;;20.98;27.39;98624.69;4919148;29;1983;-81
2024/02/20 06:06:54;;;;;;;;;;;;;;;21.16;27.23;98624.47;4936397;29;972;-82
2024/02/20 06:09:20;;;;;;;;;;;;;;;21.28;26.87;98625.88;4950245;29;929;-82
2024/02/20 06:11:45;;;;;;;;;;;;;;;20.66;27.66;98627.16;4920278;29;983;-82
2024/02/20 06:14:11;;;;;;;;;;;;;;;20.80;27.32;98629.81;4934387;29;953;-81
2024/02/20 06:16:36;;;;;;;;;;;;;;;21.05;27.46;98629.47;4933875;29;1600;-82
2024/02/20 06:19:02;;;;;;;;;;;;;;;21.06;27.20;98636.72;4944084;28;939;-81
2024/02/20 06:21:27;;;;;;;;;;;;;;;21.11;27.20;98636.25;4961580;28;1436;-81
2024/02/20 06:23:54;;;;;;;;;;;;;;;21.07;27.31;98638.31;4972843;28;1887;-81
2024/02/20 06:26:20;;;;;;;;;;;;;;;21.22;27.16;98642.56;4971113;28;1496;-81
2024/02/20 06:28:45;;;;;;;;;;;;;;;21.30;26.92;98643.28;4965101;28;1323;-81
2024/02/20 06:31:11;;;;;;;;;;;;;;;21.13;27.25;98624.50;5024470;28;1499;-81
2024/02/20 06:33:37;;;;;;;;;;;;;;;21.23;26.90;98635.66;5009963;28;1277;-81
2024/02/20 06:36:03;;;;;;;;;;;;;;;20.74;27.50;98635.16;5011317;28;1199;-81
2024/02/20 06:38:31;;;;;;;;;;;;;;;20.45;27.81;98648.00;5013983;28;1224;-81
2024/02/20 06:40:57;;;;;;;;;;;;;;;20.98;27.78;98643.72;5007551;28;1491;-82
2024/02/20 06:43:23;;;;;;;;;;;;;;;21.10;27.27;98645.97;4996638;28;1306;-82
2024/02/20 06:45:50;;;;;;;;;;;;;;;21.24;26.98;98642.94;5029435;28;1882;-82
2024/02/20 06:48:15;;;;;;;;;;;;;;;21.18;27.13;98644.63;5025823;28;1315;-81
2024/02/20 06:50:41;;;;;;;;;;;;;;;21.07;27.57;98644.00;5024316;28;1233;-80
2024/02/20 06:53:07;;;;;;;;;;;;;;;21.25;27.25;98638.88;5024088;28;1221;-81
2024/02/20 06:55:33;;;;;;;;;;;;;;;21.09;27.24;98635.88;5030504;28;1188;-81
2024/02/20 06:57:58;;;;;;;;;;;;;;;20.70;27.58;98642.06;5028893;28;907;-81
2024/02/20 07:00:25;;;;;;;;;;;;;;;20.84;27.32;98639.06;5029388;28;961;-82
2024/02/20 07:02:50;;;;;;;;;;;;;;;20.83;27.65;98645.13;5029022;28;914;-82
2024/02/20 07:05:16;;;;;;;;;;;;;;;21.14;27.35;98643.91;5012851;28;1965;-81
2024/02/20 07:07:42;;;;;;;;;;;;;;;21.17;27.07;98648.69;5029302;28;962;-80
2024/02/20 07:10:08;;;;;;;;;;;;;;;21.09;27.22;98650.03;5028497;28;1125;-80
2024/02/20 07:12:34;;;;;;;;;;;;;;;21.02;27.56;98642.44;5030439;28;938;-81
2024/02/20 07:15:01;;;;;;;;;;;;;;;21.08;27.20;98637.09;5027512;28;796;-81
2024/02/20 07:17:27;;;;;;;;;;;;;;;20.97;27.82;98639.28;5013259;28;799;-81
2024/02/20 07:19:52;;;;;;;;;;;;;;;21.10;27.28;98640.31;5011591;28;991;-81
2024/02/20 07:22:18;;;;;;;;;;;;;;;21.07;27.42;98638.31;4989981;28;993;-82
2024/02/20 07:24:44;;;;;;;;;;;;;;;20.73;27.71;98636.38;4987884;28;1983;-82
2024/02/20 07:27:09;;;;;;;;;;;;;;;20.77;27.47;98641.97;4989059;28;1139;-81
2024/02/20 07:29:36;;;;;;;;;;;;;;;20.74;28.08;98632.31;4987049;28;1224;-80
2024/02/20 07:32:02;;;;;;;;;;;;;;;21.16;27.33;98635.78;4986628;28;1314;-81
2024/02/20 07:34:28;;;;;;;;;;;;;;;21.14;27.24;98632.59;4987153;28;967;-81
2024/02/20 07:36:54;;;;;;;;;;;;;;;21.17;27.03;98636.56;4973270;28;952;-82
2024/02/20 07:39:19;;;;;;;;;;;;;;;20.95;27.47;98630.44;4987042;28;948;-81
2024/02/20 07:41:45;;;;;;;;;;;;;;;20.97;27.62;98639.28;4969705;28;1025;-81
2024/02/20 07:44:11;;;;;;;;;;;;;;;21.07;27.30;98635.50;4951983;29;1887;-82
2024/02/20 07:46:37;;;;;;;;;;;;;;;21.05;27.46;98635.94;4969752;28;1097;-81
2024/02/20 07:49:02;;;;;;;;;;;;;;;20.58;28.15;98634.97;4952186;29;976;-81
2024/02/20 07:51:29;;;;;;;;;;;;;;;20.51;27.88;98641.47;4970224;28;949;-80
2024/02/20 07:53:55;;;;;;;;;;;;;;;20.94;27.32;98631.66;4967003;28;1167;-82
2024/02/20 07:56:24;;;;;;;;;;;;;;;20.94;27.43;98634.50;4972754;28;1154;-81
2024/02/20 07:58:50;;;;;;;;;;;;;;;21.19;26.99;98629.28;4955850;28;1238;-81
2024/02/20 08:01:16;;;;;;;;;;;;;;;21.06;27.14;98639.56;4972713;28;833;-82
2024/02/20 08:03:43;;;;;;;;;;;;;;;21.24;26.97;98637.28;4954394;28;1436;-80
2024/02/20 08:06:08;;;;;;;;;;;;;;;21.34;27.03;98641.19;4989706;28;1891;-82
2024/02/20 08:08:34;;;;;;;;;;;;;;;21.19;27.17;98646.25;4987191;28;1145;-82
2024/02/20 08:11:00;;;;;;;;;;;;;;;21.02;27.25;98641.63;4974489;28;1143;-81
2024/02/20 08:13:25;;;;;;;;;;;;;;;20.71;27.81;98647.28;4970993;28;856;-81
2024/02/20 08:15:51;;;;;;;;;;;;;;;20.90;27.47;98653.53;4973259;28;979;-81
2024/02/20 08:18:16;;;;;;;;;;;;;;;21.28;27.00;98646.50;4977220;28;951;-82
2024/02/20 08:20:42;;;;;;;;;;;;;;;21.17;27.39;98648.69;5032661;28;1256;-80
2024/02/20 08:23:08;;;;;;;;;;;;;;;21.17;27.23;98643.03;5030425;28;855;-79
2024/02/20 08:25:33;;;;;;;;;;;;;;;21.13;27.12;98642.28;5032035;28;1899;-80
2024/02/20 08:27:59;;;;;;;;;;;;;;;21.28;26.90;98648.53;5025326;28;1643;-80
2024/02/20 08:30:26;;;;;;;;;;;;;;;21.37;26.69;98650.88;5021242;28;1538;-80
2024/02/20 08:32:51;;;;;;;;;;;;;;;20.92;27.18;98654.69;5023649;28;1317;-81
2024/02/20 08:35:17;;;;;;;;;;;;;;;20.60;27.85;98659.97;5020742;28;1503;-78
2024/02/20 08:37:43;;;;;;;;;;;;;;;20.99;27.37;98651.78;5028566;28;1629;-78
2024/02/20 08:40:09;;;;;;;;;;;;;;;20.97;27.37;98656.25;5027031;28;941;-79
2024/02/20 08:42:34;;;;;;;;;;;;;;;21.05;27.31;98646.44;5029977;28;993;-79
2024/02/20 08:45:03;;;;;;;;;;;;;;;21.00;27.36;98656.22;5029550;28;1962;-79
2024/02/20 08:47:29;;;;;;;;;;;;;;;21.05;27.42;98657.78;5018510;28;1370;-78
2024/02/20 08:49:54;;;;;;;;;;;;;;;21.17;27.10;98643.03;4978534;28;1551;-78
2024/02/20 08:52:20;;;;;;;;;;;;;;;21.24;26.96;98654.28;5010212;28;951;-79
2024/02/20 08:54:46;;;;;;;;;;;;;;;21.12;27.19;98652.00;5012015;28;1252;-79
2024/02/20 08:57:11;;;;;;;;;;;;;;;20.76;27.71;98649.66;5019111;28;1509;-79
2024/02/20 08:59:37;;;;;;;;;;;;;;;20.72;27.54;98653.75;5019890;28;1588;-80
2024/02/20 09:02:03;;;;;;;;;;;;;;;20.80;27.65;98656.06;5019715;28;1533;-79
2024/02/20 09:04:29;;;;;;;;;;;;;;;21.18;27.00;98661.59;5015007;28;1903;-78
2024/02/20 09:06:54;;;;;;;;;;;;;;;20.92;27.57;98653.91;4976929;28;1174;-78
2024/02/20 09:09:22;;;;;;;;;;;;;;;20.80;27.59;98653.25;4991769;28;1219;-78
2024/02/20 09:11:49;;;;;;;;;;;;;;;20.94;27.80;98652.25;5009676;28;973;-78
2024/02/20 09:14:14;;;;;;;;;;;;;;;21.06;27.30;98653.72;4970666;28;1060;-79
2024/02/20 09:16:40;;;;;;;;;;;;;;;21.23;26.92;98658.31;4973037;28;921;-79
2024/02/20 09:19:06;;;;;;;;;;;;;;;21.21;27.24;98651.47;4971020;28;990;-79
2024/02/20 09:21:31;;;;;;;;;;;;;;;20.71;27.47;98650.13;4972632;28;985;-79
2024/02/20 09:23:57;;;;;;;;;;;;;;;20.73;27.59;98647.69;4971381;28;1883;-79
2024/02/20 09:26:23;;;;;;;;;;;;;;;21.07;27.20;98652.47;4956579;28;996;-79
2024/02/20 09:28:49;;;;;;;;;;;;;;;20.94;27.38;98657.13;4955052;28;1212;-78
2024/02/20 09:31:14;;;;;;;;;;;;;;;20.97;27.53;98656.25;4971761;28;990;-80
2024/02/20 09:33:40;;;;;;;;;;;;;;;20.98;27.52;98650.16;4932103;29;1161;-79
2024/02/20 09:36:07;;;;;;;;;;;;;;;21.13;27.19;98647.94;4934363;29;887;-80
2024/02/20 09:38:33;;;;;;;;;;;;;;;21.10;26.93;98648.81;4947702;29;1090;-79
2024/02/20 09:41:02;;;;;;;;;;;;;;;20.39;28.28;98646.84;4934329;29;1003;-78
2024/02/20 09:43:28;;;;;;;;;;;;;;;20.72;27.41;98650.91;4931567;29;1015;-79
2024/02/20 09:45:54;;;;;;;;;;;;;;;21.05;27.34;98652.13;4965569;28;1892;-79
2024/02/20 09:48:19;;;;;;;;;;;;;;;21.02;27.30;98648.09;4950930;29;1702;-78
2024/02/20 09:50:45;;;;;;;;;;;;;;;20.85;27.84;98645.53;4968910;28;962;-79
2024/02/20 09:53:11;;;;;;;;;;;;;;;21.19;27.09;98648.25;4950764;29;1298;-79
2024/02/20 09:55:37;;;;;;;;;;;;;;;21.22;26.97;98642.56;4968223;28;941;-79
2024/02/20 09:58:02;;;;;;;;;;;;;;;21.26;27.01;98640.47;4967300;29;991;-78
2024/02/20 10:00:28;;;;;;;;;;;;;;;20.54;27.84;98645.50;4951655;29;1264;-78
2024/02/20 10:02:54;;;;;;;;;;;;;;;20.69;27.75;98638.44;4966690;29;926;-79
2024/02/20 10:05:19;;;;;;;;;;;;;;;20.84;27.70;98639.06;4962640;28;1915;-78
2024/02/20 10:07:45;;;;;;;;;;;;;;;21.01;27.24;98640.03;4986645;28;993;-79
2024/02/20 10:10:12;;;;;;;;;;;;;;;20.96;27.54;98632.03;4970090;28;976;-78
2024/02/20 10:12:39;;;;;;;;;;;;;;;21.06;27.15;98631.06;4954638;28;925;-78
2024/02/20 10:15:07;;;;;;;;;;;;;;;21.10;27.23;98631.03;4970720;28;938;-78
2024/02/20 10:17:33;;;;;;;;;;;;;;;21.20;26.96;98630.88;4972128;28;1084;-77
2024/02/20 10:20:05;;;;;;;;;;;;;;;21.03;27.47;98623.44;4969743;28;992;-77
2024/02/20 10:22:31;;;;;;;;;;;;;;;21.06;27.24;98631.06;4971672;28;1292;-79
2024/02/20 10:25:03;;;;;;;;;;;;;;;21.09;27.07;98624.56;4969271;28;1899;-79
2024/02/20 10:27:29;;;;;;;;;;;;;;;20.74;27.41;98623.84;4971548;28;1319;-78
2024/02/20 10:29:54;;;;;;;;;;;;;;;20.61;27.81;98617.13;4969216;28;1233;-79
2024/02/20 10:32:22;;;;;;;;;;;;;;;21.08;27.33;98620.13;4955317;28;1215;-78
2024/02/20 10:34:57;;;;;;;;;;;;;;;21.04;27.44;98611.69;4994878;28;1394;-78
2024/02/20 10:37:26;;;;;;;;;;;;;;;21.25;26.71;98616.25;5003307;28;1677;-78
2024/02/20 10:40:01;;;;;;;;;;;;;;;21.26;27.15;98612.19;5007927;28;1844;-78
2024/02/20 10:42:27;;;;;;;;;;;;;;;21.20;27.11;98613.88;5007440;28;899;-78
2024/02/20 10:44:53;;;;;;;;;;;;;;;21.23;26.98;98600.91;5006277;28;1967;-78
2024/02/20 10:47:18;;;;;;;;;;;;;;;21.19;26.82;98614.28;5007395;28;943;-78
2024/02/20 10:49:44;;;;;;;;;;;;;;;20.86;27.24;98610.34;4990184;28;1524;-79
2024/02/20 10:52:09;;;;;;;;;;;;;;;20.84;27.65;98605.13;5017489;28;1364;-78
2024/02/20 10:54:35;;;;;;;;;;;;;;;21.10;27.29;98605.56;5005631;28;1342;-79
2024/02/20 10:57:00;;;;;;;;;;;;;;;21.05;27.09;98612.50;5016193;28;1649;-79
2024/02/20 10:59:27;;;;;;;;;;;;;;;21.10;27.32;98597.88;5010782;28;1552;-78
2024/02/20 11:01:52;;;;;;;;;;;;;;;21.06;27.25;98605.59;5014158;28;1419;-78
2024/02/20 11:04:18;;;;;;;;;;;;;;;20.98;27.13;98596.41;5006883;28;1984;-78
2024/02/20 11:06:44;;;;;;;;;;;;;;;21.26;26.87;98583.88;5007530;28;954;-79
2024/02/20 11:09:10;;;;;;;;;;;;;;;21.04;27.15;98582.63;4949520;29;1091;-79
2024/02/20 11:11:36;;;;;;;;;;;;;;;20.40;28.07;98580.63;4951435;29;1043;-79
2024/02/20 11:14:02;;;;;;;;;;;;;;;20.56;27.84;98580.84;4949925;28;918;-79
2024/02/20 11:16:34;;;;;;;;;;;;;;;21.09;27.07;98576.47;4951332;28;958;-78
2024/02/20 11:19:00;;;;;;;;;;;;;;;21.07;27.24;98581.75;4948915;29;1223;-80
2024/02/20 11:21:27;;;;;;;;;;;;;;;21.12;27.34;98569.94;4929487;29;908;-78
2024/02/20 11:23:52;;;;;;;;;;;;;;;21.28;26.86;98572.91;4927567;29;921;-78
2024/02/20 11:26:24;;;;;;;;;;;;;;;21.33;26.77;98566.78;4937858;29;1899;-78
2024/02/20 11:28:50;;;;;;;;;;;;;;;21.08;27.41;98566.34;4945034;29;1602;-78
2024/02/20 11:31:23;;;;;;;;;;;;;;;21.21;26.98;98567.38;4941574;29;1578;-79
2024/02/20 11:33:48;;;;;;;;;;;;;;;20.72;27.55;98555.56;4905396;29;1871;-78
2024/02/20 11:36:14;;;;;;;;;;;;;;;20.84;27.37;98557.03;4931842;29;1257;-79
2024/02/20 11:38:39;;;;;;;;;;;;;;;20.81;27.60;98564.34;4902606;29;1640;-78
2024/02/20 11:41:08;;;;;;;;;;;;;;;21.03;27.33;98559.16;4963681;28;1094;-78
2024/02/20 11:43:33;;;;;;;;;;;;;;;20.98;27.25;98556.81;4964480;28;918;-78
2024/02/20 11:45:59;;;;;;;;;;;;;;;21.08;27.31;98553.00;4966725;28;1883;-78
2024/02/20 11:48:25;;;;;;;;;;;;;;;21.14;27.00;98553.34;4956186;28;1370;-79
2024/02/20 11:50:53;;;;;;;;;;;;;;;21.07;27.10;98554.25;4959347;28;1590;-78
2024/02/20 11:53:19;;;;;;;;;;;;;;;21.21;26.90;98547.56;5004412;28;1608;-78
2024/02/20 11:55:49;;;;;;;;;;;;;;;21.10;27.30;98543.31;5014186;28;1315;-78
2024/02/20 11:58:15;;;;;;;;;;;;;;;20.89;27.35;98541.63;5012008;28;1515;-79
2024/02/20 12:00:40;;;;;;;;;;;;;;;20.66;27.62;98542.34;5016253;28;1466;-78
2024/02/20 12:03:09;;;;;;;;;;;;;;;20.63;27.84;98541.19;5022936;28;1166;-79
2024/02/20 12:05:37;;;;;;;;;;;;;;;21.05;27.41;98538.94;5009771;28;1991;-78
2024/02/20 12:08:13;;;;;;;;;;;;;;;20.81;27.72;98533.22;4991939;28;1006;-78
2024/02/20 12:10:38;;;;;;;;;;;;;;;20.91;27.49;98533.50;5025768;28;980;-78
2024/02/20 12:13:13;;;;;;;;;;;;;;;20.97;27.50;98537.44;5008515;28;1293;-78
2024/02/20 12:15:39;;;;;;;;;;;;;;;21.13;27.27;98540.41;5009819;28;1306;-78
2024/02/20 12:18:05;;;;;;;;;;;;;;;21.37;27.03;98531.97;5023898;28;945;-78
2024/02/20 12:20:30;;;;;;;;;;;;;;;21.12;27.04;98547.31;5008449;28;901;-78
2024/02/20 12:23:02;;;;;;;;;;;;;;;20.86;27.57;98545.28;5025010;28;907;-78
2024/02/20 12:25:27;;;;;;;;;;;;;;;20.20;28.44;98536.03;5009254;28;1895;-78
2024/02/20 12:27:53;;;;;;;;;;;;;;;20.73;27.90;98543.06;5025620;28;1559;-78
2024/02/20 12:30:19;;;;;;;;;;;;;;;21.13;27.17;98534.75;5024837;28;1238;-78
2024/02/20 12:32:44;;;;;;;;;;;;;;;21.02;27.40;98539.78;5008699;28;1028;-78
2024/02/20 12:35:10;;;;;;;;;;;;;;;21.03;27.23;98538.56;5025277;28;962;-78
2024/02/20 12:37:35;;;;;;;;;;;;;;;21.03;27.22;98535.72;5027057;28;946;-78
2024/02/20 12:40:01;;;;;;;;;;;;;;;20.98;27.58;98527.72;5024044;28;926;-79
2024/02/20 12:42:26;;;;;;;;;;;;;;;21.29;27.03;98526.38;5025709;28;936;-79
2024/02/20 12:44:52;;;;;;;;;;;;;;;21.29;26.76;98520.72;5025478;28;1910;-78
2024/02/20 12:47:17;;;;;;;;;;;;;;;20.89;27.25;98524.66;5026698;28;1111;-79
2024/02/20 12:49:43;;;;;;;;;;;;;;;20.81;27.67;98524.75;5024963;28;919;-78
2024/02/20 12:52:08;;;;;;;;;;;;;;;21.06;27.45;98524.34;5006602;28;1533;-78
2024/02/20 12:54:34;;;;;;;;;;;;;;;21.10;27.29;98532.78;5006418;28;894;-77
2024/02/20 12:57:00;;;;;;;;;;;;;;;21.11;27.19;98533.59;5005862;28;949;-78